Albemarle Island — C6LU3 — position and weather

sailwx.info

Track history (hours):
 
Tides and Currents Weather Stations Pressure Air Temp Water Temp Dewpoint Dewpoint Depression Visibility Wind Speed Wind Dir Waves Ship Positions

Albemarle Island

Last reported at 2017-Oct-19 09:36 UTC. Time now 2017-Oct-23 08:29 UTC.
Position N 48°52' W 005°50'.

Type: Cargo ship. MMSI: 308511000.

Date/timePositionNaut miles runAvg speedWind from/ knotsBaromVisibWave heightAir tempDewpointWater temp
2017-Oct-19 09:36N 48°52' W 005°50'319.7
2017-Oct-19 09:28N 48°54' W 005°48'5019.6
2017-Oct-19 06:54N 49°20' W 004°42'1018.3
2017-Oct-19 06:22N 49°25' W 004°29'617.9
2017-Oct-19 06:00N 49°28' W 004°20'917.6
2017-Oct-19 05:31N 49°33' W 004°09'917.2
2017-Oct-19 04:58N 49°38' W 003°57'816.8
2017-Oct-19 04:30N 49°41' W 003°46'917.3
2017-Oct-19 04:00N 49°46' W 003°35'917.9
2017-Oct-19 03:31N 49°50' W 003°23'918.6
2017-Oct-19 03:00N 49°55' W 003°11'1019.5
2017-Oct-19 02:30N 49°59' W 002°57'1020.7
2017-Oct-19 02:00N 50°02' W 002°41'1121.7
2017-Oct-19 01:30N 50°05' W 002°25'1122.5
2017-Oct-19 01:00N 50°08' W 002°08'1122.8
2017-Oct-19 00:30N 50°11' W 001°51'1122.4
2017-Oct-19 00:00N 50°14' W 001°34'1121.6
2017-Oct-18 23:30N 50°17' W 001°18'1220.6
2017-Oct-18 22:55N 50°20' W 001°00'819.4
2017-Oct-18 22:30N 50°23' W 000°48'1318.4
2017-Oct-18 21:49N 50°26' W 000°28'618.0
2017-Oct-18 21:30N 50°27' W 000°20'917.7
2017-Oct-18 20:58N 50°30' W 000°06'817.3
2017-Oct-18 20:30N 50°32' E 000°07'917.0
2017-Oct-18 20:00N 50°34' E 000°20'917.1
2017-Oct-18 19:30N 50°36' E 000°33'917.7
2017-Oct-18 19:00N 50°41' E 000°44'1019.1
2017-Oct-18 18:30N 50°47' E 000°56'1020.1
2017-Oct-18 18:00N 50°53' E 001°08'1020.9
2017-Oct-18 17:30N 51°00' E 001°20'1121.0
2017-Oct-18 17:00N 51°06' E 001°34'1020.4
2017-Oct-18 16:30N 51°13' E 001°46'1019.4
2017-Oct-18 16:00N 51°21' E 001°54'918.5
2017-Oct-18 15:30N 51°29' E 002°03'918.1
2017-Oct-18 15:00N 51°35' E 002°13'2017.3
2017-Oct-18 13:52N 51°51' E 002°32'617.3
2017-Oct-18 13:30N 51°57' E 002°35'4117.7
2017-Oct-18 11:11N 52°35' E 002°59'419.1
2017-Oct-18 10:59N 52°39' E 003°02'1719.4
2017-Oct-18 10:08N 52°54' E 003°15'919.8
2017-Oct-18 09:40N 53°02' E 003°19'319.9
2017-Oct-18 09:29N 53°06' E 003°21'1020.1
2017-Oct-18 09:00N 53°15' E 003°26'1220.0
2017-Oct-18 08:26N 53°26' E 003°32'1319.9
2017-Oct-18 07:46N 53°39' E 003°39'719.0
2017-Oct-18 07:23N 53°45' E 003°45'33813.8
2017-Oct-17 06:54N 57°49' E 010°40'615.3
2017-Oct-17 06:30N 57°45' E 010°48'3 6.0
2017-Oct-17 06:00N 57°42' E 010°50'1 1.5
2017-Oct-17 05:30N 57°41' E 010°50'611.6
2017-Oct-17 05:00N 57°39' E 011°01'815.2
2017-Oct-17 04:30N 57°35' E 011°12'816.1
2017-Oct-17 04:00N 57°30' E 011°24'815.9
2017-Oct-17 03:30N 57°23' E 011°30'816.4
2017-Oct-17 03:00N 57°15' E 011°35'1016.3
2017-Oct-17 02:24N 57°06' E 011°41'716.8
2017-Oct-17 02:00N 56°59' E 011°45'4514.9
2017-Oct-16 23:00N 56°16' E 011°23'1216.5
2017-Oct-16 22:17N 56°07' E 011°10'3915.0
2017-Oct-16 19:41N 55°29' E 010°55'316.0
2017-Oct-16 19:29N 55°26' E 010°58'815.5
2017-Oct-16 19:00N 55°19' E 011°03'815.7
2017-Oct-16 18:30N 55°12' E 011°05'816.3
2017-Oct-16 18:00N 55°04' E 011°03'815.8
2017-Oct-16 17:30N 54°56' E 010°57'816.2
2017-Oct-16 17:00N 54°49' E 010°53'815.2
2017-Oct-16 16:30N 54°41' E 010°56'816.9
2017-Oct-16 16:00N 54°38' E 011°09'816.8
2017-Oct-16 15:30N 54°34' E 011°22'816.9
2017-Oct-16 15:00N 54°29' E 011°34'816.8
2017-Oct-16 14:30N 54°27' E 011°48'1514.9
2017-Oct-16 13:30N 54°32' E 012°12'816.3
2017-Oct-16 13:00N 54°39' E 012°20'917.4
2017-Oct-16 12:30N 54°43' E 012°32'917.4
2017-Oct-16 11:59N 54°48' E 012°46'817.4
2017-Oct-16 11:30N 54°51' E 012°60'917.4
2017-Oct-16 11:00N 54°54' E 013°14'917.3
2017-Oct-16 10:30N 54°57' E 013°28'917.2
2017-Oct-16 10:00N 54°60' E 013°42'1017.2
2017-Oct-16 09:25N 55°03' E 013°59'717.0
2017-Oct-16 08:59N 55°08' E 014°09'817.3
2017-Oct-16 08:30N 55°15' E 014°18'817.3
2017-Oct-16 08:00N 55°21' E 014°26'916.9
2017-Oct-16 07:29N 55°28' E 014°37'817.4
2017-Oct-16 07:00N 55°31' E 014°50'917.5
2017-Oct-16 06:30N 55°35' E 015°05'918.9
2017-Oct-16 06:00N 55°39' E 015°19'918.9
2017-Oct-16 05:30N 55°43' E 015°34'1019.3
2017-Oct-16 05:00N 55°48' E 015°49'1019.3
2017-Oct-16 04:30N 55°54' E 016°03'1019.2
2017-Oct-16 04:00N 55°58' E 016°18'1019.2
2017-Oct-16 03:30N 56°04' E 016°33'2119.1
2017-Oct-16 02:24N 56°16' E 017°03'819.1
2017-Oct-16 02:00N 56°21' E 017°14'919.0
2017-Oct-16 01:30N 56°27' E 017°27'919.0
2017-Oct-16 01:00N 56°32' E 017°41'918.8
2017-Oct-16 00:30N 56°38' E 017°55'1019.1
2017-Oct-15 23:59N 56°44' E 018°09'17118.8
2017-Oct-15 14:53N 59°01' E 021°24'2 2.6
2017-Oct-15 14:00N 59°03' E 021°25'1 1.1
2017-Oct-15 13:27N 59°03' E 021°24'0 1.1
2017-Oct-15 13:00N 59°03' E 021°23'1 1.1
2017-Oct-15 12:30N 59°03' E 021°22'1 1.1
2017-Oct-15 12:00N 59°04' E 021°21'1 1.1
2017-Oct-15 11:30N 59°04' E 021°20'0 0.9
2017-Oct-15 11:00N 59°04' E 021°19'6 7.9
2017-Oct-15 10:14N 59°07' E 021°30'417.5
2017-Oct-15 10:00N 59°09' E 021°36'1117.6
2017-Oct-15 09:23N 59°16' E 021°53'717.7
2017-Oct-15 09:00N 59°20' E 022°03'1417.8
2017-Oct-15 08:15N 59°28' E 022°24'417.8
2017-Oct-15 08:00N 59°31' E 022°31'917.8
2017-Oct-15 07:30N 59°33' E 022°48'918.1
2017-Oct-15 07:00N 59°35' E 023°05'917.7
2017-Oct-15 06:30N 59°37' E 023°22'917.9
2017-Oct-15 06:00N 59°41' E 023°38'917.9
2017-Oct-15 05:30N 59°43' E 023°56'917.9
2017-Oct-15 05:00N 59°45' E 024°13'917.9
2017-Oct-15 04:30N 59°47' E 024°30'917.3
2017-Oct-15 04:00N 59°49' E 024°47'917.3
2017-Oct-15 03:30N 59°51' E 025°04'3517.4
2017-Oct-15 01:30N 59°58' E 026°12'817.3
2017-Oct-15 01:01N 60°00' E 026°28'816.7
2017-Oct-15 00:30N 60°01' E 026°45'816.4
2017-Oct-15 00:00N 59°59' E 027°01'817.0
2017-Oct-14 23:31N 60°03' E 027°16'816.9
2017-Oct-14 23:01N 60°08' E 027°30'816.4
2017-Oct-14 22:31N 60°12' E 027°45'815.7
2017-Oct-14 22:01N 60°10' E 028°00'816.2
2017-Oct-14 21:30N 60°08' E 028°16'816.2
2017-Oct-14 21:01N 60°04' E 028°30'816.4
2017-Oct-14 20:31N 60°03' E 028°46'816.3
2017-Oct-14 20:00N 60°03' E 029°03'2113.5
2017-Oct-14 18:25N 59°59' E 029°45'410.7
2017-Oct-14 18:00N 59°57' E 029°53'612.0
2017-Oct-14 17:30N 59°55' E 030°04'4 7.9
2017-Oct-14 17:00N 59°53' E 030°11'3 5.5
2017-Oct-14 16:30N 59°55' E 030°15'1 1.3
2017-Oct-14 16:00N 59°55' E 030°14'0 0.0
2017-Oct-14 15:30N 59°55' E 030°14'0 0.0
2017-Oct-14 15:00N 59°55' E 030°14'0 0.0
2017-Oct-14 14:30N 59°55' E 030°14'0 0.0
2017-Oct-14 14:00N 59°55' E 030°14'0 0.0
2017-Oct-14 13:30N 59°55' E 030°14'0 0.0
2017-Oct-14 13:00N 59°55' E 030°14'0 0.0
2017-Oct-14 12:30N 59°55' E 030°14'0 0.0
2017-Oct-14 12:00N 59°55' E 030°14'0 0.0
2017-Oct-14 11:30N 59°55' E 030°14'0 0.0
2017-Oct-14 11:00N 59°55' E 030°14'0 0.0
2017-Oct-14 10:30N 59°55' E 030°14'0 0.0
2017-Oct-14 10:00N 59°55' E 030°14'0 0.0
2017-Oct-14 09:30N 59°55' E 030°14'0 0.0
2017-Oct-14 09:00N 59°55' E 030°14'0 0.0
2017-Oct-14 08:30N 59°55' E 030°14'0 0.0
2017-Oct-14 07:59N 59°55' E 030°14'0 0.0
2017-Oct-14 07:29N 59°55' E 030°14'0 0.0
2017-Oct-14 06:56N 59°55' E 030°14'0 0.0
2017-Oct-14 06:29N 59°55' E 030°14'0 0.0
2017-Oct-14 05:59N 59°55' E 030°14'0 0.0
2017-Oct-14 05:29N 59°55' E 030°14'0 0.0
2017-Oct-14 04:59N 59°55' E 030°14'0 0.0
2017-Oct-14 04:26N 59°55' E 030°14'0 0.0
2017-Oct-14 03:59N 59°55' E 030°14'0 0.0
2017-Oct-14 03:29N 59°55' E 030°14'0 0.0
2017-Oct-14 02:59N 59°55' E 030°14'0 0.0
2017-Oct-14 02:29N 59°55' E 030°14'0 0.0
2017-Oct-14 01:59N 59°55' E 030°14'0 0.0
2017-Oct-14 01:26N 59°55' E 030°14'0 0.0
2017-Oct-14 00:59N 59°55' E 030°14'0 0.0
2017-Oct-14 00:29N 59°55' E 030°14'0 0.0
2017-Oct-13 23:56N 59°55' E 030°14'0 0.0
2017-Oct-13 23:29N 59°55' E 030°14'0 0.0
2017-Oct-13 22:59N 59°55' E 030°14'0 0.0
2017-Oct-13 22:29N 59°55' E 030°14'0 0.0
2017-Oct-13 21:59N 59°55' E 030°14'0 0.0
2017-Oct-13 21:26N 59°55' E 030°14'0 0.0
2017-Oct-13 20:59N 59°55' E 030°14'0 0.0
2017-Oct-13 20:29N 59°55' E 030°14'0 0.0
2017-Oct-13 19:59N 59°55' E 030°14'0 0.0
2017-Oct-13 19:29N 59°55' E 030°14'0 0.0
2017-Oct-13 18:59N 59°55' E 030°14'0 0.0
2017-Oct-13 18:29N 59°55' E 030°14'0 0.0
2017-Oct-13 17:59N 59°55' E 030°14'0 0.0
2017-Oct-13 17:29N 59°55' E 030°14'0 0.0
2017-Oct-13 16:59N 59°55' E 030°14'0 0.0
2017-Oct-13 16:29N 59°55' E 030°14'0 0.0
2017-Oct-13 15:59N 59°55' E 030°14'0 0.0
2017-Oct-13 15:29N 59°55' E 030°14'0 0.0
2017-Oct-13 14:59N 59°55' E 030°14'0 0.0
2017-Oct-13 14:26N 59°55' E 030°14'0 0.0
2017-Oct-13 13:59N 59°55' E 030°14'0 0.0
2017-Oct-13 13:29N 59°55' E 030°14'0 0.0
2017-Oct-13 12:59N 59°55' E 030°14'0 0.0
2017-Oct-13 12:29N 59°55' E 030°14'0 0.0
2017-Oct-13 11:59N 59°55' E 030°14'0 0.0
2017-Oct-13 11:29N 59°55' E 030°14'0 0.0
2017-Oct-13 10:59N 59°55' E 030°14'0 0.0
2017-Oct-13 10:29N 59°55' E 030°14'0 0.0
2017-Oct-13 09:59N 59°55' E 030°14'0 0.0
2017-Oct-13 09:29N 59°55' E 030°14'0 0.0
2017-Oct-13 08:59N 59°55' E 030°14'0 0.0
2017-Oct-13 08:29N 59°55' E 030°14'0 0.0
2017-Oct-13 07:59N 59°55' E 030°14'0 0.0
2017-Oct-13 07:26N 59°55' E 030°14'0 0.0
2017-Oct-13 06:59N 59°55' E 030°14'0 0.0
2017-Oct-13 06:29N 59°55' E 030°14'0 0.0
2017-Oct-13 05:59N 59°55' E 030°14'0 0.0
2017-Oct-13 05:29N 59°55' E 030°14'0 0.0
2017-Oct-13 04:59N 59°55' E 030°14'0 0.0
2017-Oct-13 04:29N 59°55' E 030°14'0 0.0
2017-Oct-13 03:59N 59°55' E 030°14'0 0.0
2017-Oct-13 03:29N 59°55' E 030°14'0 0.0
2017-Oct-13 02:59N 59°55' E 030°14'0 0.0
2017-Oct-13 02:29N 59°55' E 030°14'0 0.0
2017-Oct-13 01:59N 59°55' E 030°14'0 0.0
2017-Oct-13 01:29N 59°55' E 030°14'0 0.0
2017-Oct-13 00:59N 59°55' E 030°14'0 0.0
2017-Oct-13 00:26N 59°55' E 030°14'0 0.0
2017-Oct-12 23:59N 59°55' E 030°14'0 0.0
2017-Oct-12 23:29N 59°55' E 030°14'0 0.0
2017-Oct-12 22:59N 59°55' E 030°14'0 0.0
2017-Oct-12 22:29N 59°55' E 030°14'0 0.0
2017-Oct-12 21:59N 59°55' E 030°14'0 0.0
2017-Oct-12 21:26N 59°55' E 030°14'0 0.0
2017-Oct-12 20:59N 59°55' E 030°14'0 0.0
2017-Oct-12 20:29N 59°55' E 030°14'0 0.0
2017-Oct-12 19:59N 59°55' E 030°14'0 0.0
2017-Oct-12 19:28N 59°55' E 030°14'0 0.0
2017-Oct-12 18:58N 59°55' E 030°14'0 0.0
2017-Oct-12 18:28N 59°55' E 030°14'0 0.0
2017-Oct-12 17:58N 59°55' E 030°14'0 0.0
2017-Oct-12 17:28N 59°55' E 030°14'0 0.0
2017-Oct-12 16:58N 59°55' E 030°14'0 0.0
2017-Oct-12 16:25N 59°55' E 030°14'0 0.0
2017-Oct-12 15:58N 59°55' E 030°14'0 0.0
2017-Oct-12 15:28N 59°55' E 030°14'0 0.0
2017-Oct-12 14:55N 59°55' E 030°14'0 0.0
2017-Oct-12 14:28N 59°55' E 030°14'0 0.0
2017-Oct-12 13:55N 59°55' E 030°14'0 0.0
2017-Oct-12 13:28N 59°55' E 030°14'0 0.0
2017-Oct-12 12:58N 59°55' E 030°14'0 0.0
2017-Oct-12 12:28N 59°55' E 030°14'0 0.0
2017-Oct-12 11:55N 59°55' E 030°14'0 0.0
2017-Oct-12 11:28N 59°55' E 030°14'0 0.0
2017-Oct-12 10:58N 59°55' E 030°14'0 0.0
2017-Oct-12 10:28N 59°55' E 030°14'0 0.0
2017-Oct-12 09:58N 59°55' E 030°14'0 0.0
2017-Oct-12 09:28N 59°55' E 030°14'0 0.0
2017-Oct-12 08:58N 59°55' E 030°14'0 0.0
2017-Oct-12 08:28N 59°55' E 030°14'0 0.0
2017-Oct-12 07:58N 59°55' E 030°14'0 0.0
2017-Oct-12 07:28N 59°55' E 030°14'0 0.0
2017-Oct-12 06:58N 59°55' E 030°14'0 0.0
2017-Oct-12 06:28N 59°55' E 030°14'0 0.0
2017-Oct-12 05:58N 59°55' E 030°14'0 0.0
2017-Oct-12 05:25N 59°55' E 030°14'0 0.0
2017-Oct-12 04:58N 59°55' E 030°14'0 0.0
2017-Oct-12 04:28N 59°55' E 030°14'0 0.0
2017-Oct-12 03:55N 59°55' E 030°14'0 0.0
2017-Oct-12 03:28N 59°55' E 030°14'0 0.0
2017-Oct-12 02:58N 59°55' E 030°14'0 0.0
2017-Oct-12 02:28N 59°55' E 030°14'0 0.0
2017-Oct-12 01:58N 59°55' E 030°14'0 0.0
2017-Oct-12 01:28N 59°55' E 030°14'0 0.0
2017-Oct-12 00:58N 59°55' E 030°14'0 0.0
2017-Oct-12 00:28N 59°55' E 030°14'0 0.0
2017-Oct-11 23:55N 59°55' E 030°14'0 0.0
2017-Oct-11 23:28N 59°55' E 030°14'0 0.0
2017-Oct-11 22:58N 59°55' E 030°14'0 0.0
2017-Oct-11 22:28N 59°55' E 030°14'0 0.0
2017-Oct-11 21:58N 59°55' E 030°14'0 0.0
2017-Oct-11 21:28N 59°55' E 030°14'0 0.0
2017-Oct-11 20:58N 59°55' E 030°14'0 0.0
2017-Oct-11 20:28N 59°55' E 030°14'0 0.0
2017-Oct-11 19:58N 59°55' E 030°14'0 0.0
2017-Oct-11 19:28N 59°55' E 030°14'0 0.0
2017-Oct-11 18:58N 59°55' E 030°14'0 0.0
2017-Oct-11 18:28N 59°55' E 030°14'0 0.0
2017-Oct-11 17:58N 59°55' E 030°14'0 0.0
2017-Oct-11 17:28N 59°55' E 030°14'0 0.0
2017-Oct-11 16:58N 59°55' E 030°14'0 0.0
2017-Oct-11 00:00N 59°55' E 030°14'0 0.0
2017-Oct-10 23:30N 59°55' E 030°14'0 0.0
2017-Oct-10 23:00N 59°55' E 030°14'0 0.0
2017-Oct-10 22:30N 59°55' E 030°14'0 0.0
2017-Oct-10 22:00N 59°55' E 030°14'0 0.0
2017-Oct-10 21:30N 59°55' E 030°14'0 0.0
2017-Oct-10 21:00N 59°55' E 030°14'0 0.0
2017-Oct-10 20:30N 59°55' E 030°14'0 0.0
2017-Oct-10 20:00N 59°55' E 030°14'0 0.0
2017-Oct-10 19:30N 59°55' E 030°14'0 0.0
2017-Oct-10 19:00N 59°55' E 030°14'0 0.0
2017-Oct-10 18:30N 59°55' E 030°14'0 0.0
2017-Oct-10 18:00N 59°55' E 030°14'0 0.0
2017-Oct-10 17:30N 59°55' E 030°14'0 0.0
2017-Oct-10 17:00N 59°55' E 030°14'0 0.0
2017-Oct-10 16:30N 59°55' E 030°14'0 0.0
2017-Oct-10 16:00N 59°55' E 030°14'0 0.0
2017-Oct-10 15:30N 59°55' E 030°14'0 0.0
2017-Oct-10 15:00N 59°55' E 030°14'0 0.0
2017-Oct-10 14:00N 59°55' E 030°14'0 0.0
2017-Oct-10 13:30N 59°55' E 030°14'0 0.0
2017-Oct-10 13:00N 59°55' E 030°14'0 0.0
2017-Oct-10 12:30N 59°55' E 030°14'0 0.0
2017-Oct-10 12:00N 59°55' E 030°14'0 0.0
2017-Oct-10 11:27N 59°55' E 030°14'0 0.0
2017-Oct-10 11:00N 59°55' E 030°14'0 0.0
2017-Oct-10 10:30N 59°55' E 030°14'0 0.0
2017-Oct-10 10:00N 59°55' E 030°14'0 0.0
2017-Oct-10 09:30N 59°55' E 030°14'0 0.0
2017-Oct-10 09:00N 59°55' E 030°14'0 0.0
2017-Oct-10 08:30N 59°55' E 030°14'0 0.0
2017-Oct-10 08:00N 59°55' E 030°14'0 0.0
2017-Oct-10 07:30N 59°55' E 030°14'0 0.0
2017-Oct-10 07:00N 59°55' E 030°14'0 0.0
2017-Oct-10 06:30N 59°55' E 030°14'0 0.0
2017-Oct-10 06:00N 59°55' E 030°14'0 0.0
2017-Oct-10 05:30N 59°55' E 030°14'0 0.0
2017-Oct-10 05:00N 59°55' E 030°14'0 0.0
2017-Oct-10 04:30N 59°55' E 030°14'0 0.0
2017-Oct-10 04:00N 59°55' E 030°14'0 0.0
2017-Oct-10 03:30N 59°55' E 030°14'0 0.0
2017-Oct-10 03:00N 59°55' E 030°14'0 0.0
2017-Oct-10 02:30N 59°55' E 030°14'0 0.0
2017-Oct-10 02:00N 59°55' E 030°14'0 0.0
2017-Oct-10 01:30N 59°55' E 030°14'0 0.0
2017-Oct-10 01:00N 59°55' E 030°14'0 0.0
2017-Oct-10 00:30N 59°55' E 030°14'0 0.0
2017-Oct-10 00:00N 59°55' E 030°14'0 0.0
2017-Oct-09 23:30N 59°55' E 030°14'0 0.0
2017-Oct-09 23:00N 59°55' E 030°14'0 0.0
2017-Oct-09 22:30N 59°55' E 030°14'0 0.0
2017-Oct-09 22:00N 59°55' E 030°14'0 0.0
2017-Oct-09 21:30N 59°55' E 030°14'0 0.0
2017-Oct-09 21:00N 59°55' E 030°14'0 0.0
2017-Oct-09 20:30N 59°55' E 030°14'0 0.0
2017-Oct-09 20:00N 59°55' E 030°14'0 0.0
2017-Oct-09 19:30N 59°55' E 030°14'0 0.0
2017-Oct-09 18:59N 59°55' E 030°14'0 0.0
2017-Oct-09 18:29N 59°55' E 030°14'0 0.0
2017-Oct-09 17:59N 59°55' E 030°14'0 0.0
2017-Oct-09 17:29N 59°55' E 030°14'0 0.0
2017-Oct-09 17:00N 59°55' E 030°14'0 0.0
2017-Oct-09 16:29N 59°55' E 030°14'0 0.0
2017-Oct-09 15:59N 59°55' E 030°14'0 0.5
2017-Oct-09 15:30N 59°55' E 030°14'2 3.9
2017-Oct-09 15:00N 59°53' E 030°12'3 5.2
2017-Oct-09 14:31N 59°54' E 030°07'510.0
2017-Oct-09 14:00N 59°56' E 029°58'510.9
2017-Oct-09 13:30N 59°58' E 029°48'510.3
2017-Oct-09 13:01N 60°00' E 029°38'611.5
2017-Oct-09 12:30N 60°02' E 029°27'  
Track history (hours):
 
Tides and Currents Weather Stations Pressure Air Temp Water Temp Dewpoint Dewpoint Depression Visibility Wind Speed Wind Dir Waves Ship Positions

Albemarle Island

Last reported at 2017-Oct-19 09:36 UTC. Time now 2017-Oct-23 08:29 UTC.
Position N 48°52' W 005°50'.

Type: Cargo ship. MMSI: 308511000.

Date/timePositionNaut miles runAvg speedWind from/ knotsBaromVisibWave heightAir tempDewpointWater temp
2017-Oct-19 09:36N 48°52' W 005°50'319.7
2017-Oct-19 09:28N 48°54' W 005°48'5019.6
2017-Oct-19 06:54N 49°20' W 004°42'1018.3
2017-Oct-19 06:22N 49°25' W 004°29'617.9
2017-Oct-19 06:00N 49°28' W 004°20'917.6
2017-Oct-19 05:31N 49°33' W 004°09'917.2
2017-Oct-19 04:58N 49°38' W 003°57'816.8
2017-Oct-19 04:30N 49°41' W 003°46'917.3
2017-Oct-19 04:00N 49°46' W 003°35'917.9
2017-Oct-19 03:31N 49°50' W 003°23'918.6
2017-Oct-19 03:00N 49°55' W 003°11'1019.5
2017-Oct-19 02:30N 49°59' W 002°57'1020.7
2017-Oct-19 02:00N 50°02' W 002°41'1121.7
2017-Oct-19 01:30N 50°05' W 002°25'1122.5
2017-Oct-19 01:00N 50°08' W 002°08'1122.8
2017-Oct-19 00:30N 50°11' W 001°51'1122.4
2017-Oct-19 00:00N 50°14' W 001°34'1121.6
2017-Oct-18 23:30N 50°17' W 001°18'1220.6
2017-Oct-18 22:55N 50°20' W 001°00'819.4
2017-Oct-18 22:30N 50°23' W 000°48'1318.4
2017-Oct-18 21:49N 50°26' W 000°28'618.0
2017-Oct-18 21:30N 50°27' W 000°20'917.7
2017-Oct-18 20:58N 50°30' W 000°06'817.3
2017-Oct-18 20:30N 50°32' E 000°07'917.0
2017-Oct-18 20:00N 50°34' E 000°20'917.1
2017-Oct-18 19:30N 50°36' E 000°33'917.7
2017-Oct-18 19:00N 50°41' E 000°44'1019.1
2017-Oct-18 18:30N 50°47' E 000°56'1020.1
2017-Oct-18 18:00N 50°53' E 001°08'1020.9
2017-Oct-18 17:30N 51°00' E 001°20'1121.0
2017-Oct-18 17:00N 51°06' E 001°34'1020.4
2017-Oct-18 16:30N 51°13' E 001°46'1019.4
2017-Oct-18 16:00N 51°21' E 001°54'918.5
2017-Oct-18 15:30N 51°29' E 002°03'918.1
2017-Oct-18 15:00N 51°35' E 002°13'2017.3
2017-Oct-18 13:52N 51°51' E 002°32'617.3
2017-Oct-18 13:30N 51°57' E 002°35'4117.7
2017-Oct-18 11:11N 52°35' E 002°59'419.1
2017-Oct-18 10:59N 52°39' E 003°02'1719.4
2017-Oct-18 10:08N 52°54' E 003°15'919.8
2017-Oct-18 09:40N 53°02' E 003°19'319.9
2017-Oct-18 09:29N 53°06' E 003°21'1020.1
2017-Oct-18 09:00N 53°15' E 003°26'1220.0
2017-Oct-18 08:26N 53°26' E 003°32'1319.9
2017-Oct-18 07:46N 53°39' E 003°39'719.0
2017-Oct-18 07:23N 53°45' E 003°45'33813.8
2017-Oct-17 06:54N 57°49' E 010°40'615.3
2017-Oct-17 06:30N 57°45' E 010°48'3 6.0
2017-Oct-17 06:00N 57°42' E 010°50'1 1.5
2017-Oct-17 05:30N 57°41' E 010°50'611.6
2017-Oct-17 05:00N 57°39' E 011°01'815.2
2017-Oct-17 04:30N 57°35' E 011°12'816.1
2017-Oct-17 04:00N 57°30' E 011°24'815.9
2017-Oct-17 03:30N 57°23' E 011°30'816.4
2017-Oct-17 03:00N 57°15' E 011°35'1016.3
2017-Oct-17 02:24N 57°06' E 011°41'716.8
2017-Oct-17 02:00N 56°59' E 011°45'4514.9
2017-Oct-16 23:00N 56°16' E 011°23'1216.5
2017-Oct-16 22:17N 56°07' E 011°10'3915.0
2017-Oct-16 19:41N 55°29' E 010°55'316.0
2017-Oct-16 19:29N 55°26' E 010°58'815.5
2017-Oct-16 19:00N 55°19' E 011°03'815.7
2017-Oct-16 18:30N 55°12' E 011°05'816.3
2017-Oct-16 18:00N 55°04' E 011°03'815.8
2017-Oct-16 17:30N 54°56' E 010°57'816.2
2017-Oct-16 17:00N 54°49' E 010°53'815.2
2017-Oct-16 16:30N 54°41' E 010°56'816.9
2017-Oct-16 16:00N 54°38' E 011°09'816.8
2017-Oct-16 15:30N 54°34' E 011°22'816.9
2017-Oct-16 15:00N 54°29' E 011°34'816.8
2017-Oct-16 14:30N 54°27' E 011°48'1514.9
2017-Oct-16 13:30N 54°32' E 012°12'816.3
2017-Oct-16 13:00N 54°39' E 012°20'917.4
2017-Oct-16 12:30N 54°43' E 012°32'917.4
2017-Oct-16 11:59N 54°48' E 012°46'817.4
2017-Oct-16 11:30N 54°51' E 012°60'917.4
2017-Oct-16 11:00N 54°54' E 013°14'917.3
2017-Oct-16 10:30N 54°57' E 013°28'917.2
2017-Oct-16 10:00N 54°60' E 013°42'1017.2
2017-Oct-16 09:25N 55°03' E 013°59'717.0
2017-Oct-16 08:59N 55°08' E 014°09'817.3
2017-Oct-16 08:30N 55°15' E 014°18'817.3
2017-Oct-16 08:00N 55°21' E 014°26'916.9
2017-Oct-16 07:29N 55°28' E 014°37'817.4
2017-Oct-16 07:00N 55°31' E 014°50'917.5
2017-Oct-16 06:30N 55°35' E 015°05'918.9
2017-Oct-16 06:00N 55°39' E 015°19'918.9
2017-Oct-16 05:30N 55°43' E 015°34'1019.3
2017-Oct-16 05:00N 55°48' E 015°49'1019.3
2017-Oct-16 04:30N 55°54' E 016°03'1019.2
2017-Oct-16 04:00N 55°58' E 016°18'1019.2
2017-Oct-16 03:30N 56°04' E 016°33'2119.1
2017-Oct-16 02:24N 56°16' E 017°03'819.1
2017-Oct-16 02:00N 56°21' E 017°14'919.0
2017-Oct-16 01:30N 56°27' E 017°27'919.0
2017-Oct-16 01:00N 56°32' E 017°41'918.8
2017-Oct-16 00:30N 56°38' E 017°55'1019.1
2017-Oct-15 23:59N 56°44' E 018°09'17118.8
2017-Oct-15 14:53N 59°01' E 021°24'2 2.6
2017-Oct-15 14:00N 59°03' E 021°25'1 1.1
2017-Oct-15 13:27N 59°03' E 021°24'0 1.1
2017-Oct-15 13:00N 59°03' E 021°23'1 1.1
2017-Oct-15 12:30N 59°03' E 021°22'1 1.1
2017-Oct-15 12:00N 59°04' E 021°21'1 1.1
2017-Oct-15 11:30N 59°04' E 021°20'0 0.9
2017-Oct-15 11:00N 59°04' E 021°19'6 7.9
2017-Oct-15 10:14N 59°07' E 021°30'417.5
2017-Oct-15 10:00N 59°09' E 021°36'1117.6
2017-Oct-15 09:23N 59°16' E 021°53'717.7
2017-Oct-15 09:00N 59°20' E 022°03'1417.8
2017-Oct-15 08:15N 59°28' E 022°24'417.8
2017-Oct-15 08:00N 59°31' E 022°31'917.8
2017-Oct-15 07:30N 59°33' E 022°48'918.1
2017-Oct-15 07:00N 59°35' E 023°05'917.7
2017-Oct-15 06:30N 59°37' E 023°22'917.9
2017-Oct-15 06:00N 59°41' E 023°38'917.9
2017-Oct-15 05:30N 59°43' E 023°56'917.9
2017-Oct-15 05:00N 59°45' E 024°13'917.9
2017-Oct-15 04:30N 59°47' E 024°30'917.3
2017-Oct-15 04:00N 59°49' E 024°47'917.3
2017-Oct-15 03:30N 59°51' E 025°04'3517.4
2017-Oct-15 01:30N 59°58' E 026°12'817.3
2017-Oct-15 01:01N 60°00' E 026°28'816.7
2017-Oct-15 00:30N 60°01' E 026°45'816.4
2017-Oct-15 00:00N 59°59' E 027°01'817.0
2017-Oct-14 23:31N 60°03' E 027°16'816.9
2017-Oct-14 23:01N 60°08' E 027°30'816.4
2017-Oct-14 22:31N 60°12' E 027°45'815.7
2017-Oct-14 22:01N 60°10' E 028°00'816.2
2017-Oct-14 21:30N 60°08' E 028°16'816.2
2017-Oct-14 21:01N 60°04' E 028°30'816.4
2017-Oct-14 20:31N 60°03' E 028°46'816.3
2017-Oct-14 20:00N 60°03' E 029°03'2113.5
2017-Oct-14 18:25N 59°59' E 029°45'410.7
2017-Oct-14 18:00N 59°57' E 029°53'612.0
2017-Oct-14 17:30N 59°55' E 030°04'4 7.9
2017-Oct-14 17:00N 59°53' E 030°11'3 5.5
2017-Oct-14 16:30N 59°55' E 030°15'1 1.3
2017-Oct-14 16:00N 59°55' E 030°14'0 0.0
2017-Oct-14 15:30N 59°55' E 030°14'0 0.0
2017-Oct-14 15:00N 59°55' E 030°14'0 0.0
2017-Oct-14 14:30N 59°55' E 030°14'0 0.0
2017-Oct-14 14:00N 59°55' E 030°14'0 0.0
2017-Oct-14 13:30N 59°55' E 030°14'0 0.0
2017-Oct-14 13:00N 59°55' E 030°14'0 0.0
2017-Oct-14 12:30N 59°55' E 030°14'0 0.0
2017-Oct-14 12:00N 59°55' E 030°14'0 0.0
2017-Oct-14 11:30N 59°55' E 030°14'0 0.0
2017-Oct-14 11:00N 59°55' E 030°14'0 0.0
2017-Oct-14 10:30N 59°55' E 030°14'0 0.0
2017-Oct-14 10:00N 59°55' E 030°14'0 0.0
2017-Oct-14 09:30N 59°55' E 030°14'0 0.0
2017-Oct-14 09:00N 59°55' E 030°14'0 0.0
2017-Oct-14 08:30N 59°55' E 030°14'0 0.0
2017-Oct-14 07:59N 59°55' E 030°14'0 0.0
2017-Oct-14 07:29N 59°55' E 030°14'0 0.0
2017-Oct-14 06:56N 59°55' E 030°14'0 0.0
2017-Oct-14 06:29N 59°55' E 030°14'0 0.0
2017-Oct-14 05:59N 59°55' E 030°14'0 0.0
2017-Oct-14 05:29N 59°55' E 030°14'0 0.0
2017-Oct-14 04:59N 59°55' E 030°14'0 0.0
2017-Oct-14 04:26N 59°55' E 030°14'0 0.0
2017-Oct-14 03:59N 59°55' E 030°14'0 0.0
2017-Oct-14 03:29N 59°55' E 030°14'0 0.0
2017-Oct-14 02:59N 59°55' E 030°14'0 0.0
2017-Oct-14 02:29N 59°55' E 030°14'0 0.0
2017-Oct-14 01:59N 59°55' E 030°14'0 0.0
2017-Oct-14 01:26N 59°55' E 030°14'0 0.0
2017-Oct-14 00:59N 59°55' E 030°14'0 0.0
2017-Oct-14 00:29N 59°55' E 030°14'0 0.0
2017-Oct-13 23:56N 59°55' E 030°14'0 0.0
2017-Oct-13 23:29N 59°55' E 030°14'0 0.0
2017-Oct-13 22:59N 59°55' E 030°14'0 0.0
2017-Oct-13 22:29N 59°55' E 030°14'0 0.0
2017-Oct-13 21:59N 59°55' E 030°14'0 0.0
2017-Oct-13 21:26N 59°55' E 030°14'0 0.0
2017-Oct-13 20:59N 59°55' E 030°14'0 0.0
2017-Oct-13 20:29N 59°55' E 030°14'0 0.0
2017-Oct-13 19:59N 59°55' E 030°14'0 0.0
2017-Oct-13 19:29N 59°55' E 030°14'0 0.0
2017-Oct-13 18:59N 59°55' E 030°14'0 0.0
2017-Oct-13 18:29N 59°55' E 030°14'0 0.0
2017-Oct-13 17:59N 59°55' E 030°14'0 0.0
2017-Oct-13 17:29N 59°55' E 030°14'0 0.0
2017-Oct-13 16:59N 59°55' E 030°14'0 0.0
2017-Oct-13 16:29N 59°55' E 030°14'0 0.0
2017-Oct-13 15:59N 59°55' E 030°14'0 0.0
2017-Oct-13 15:29N 59°55' E 030°14'0 0.0
2017-Oct-13 14:59N 59°55' E 030°14'0 0.0
2017-Oct-13 14:26N 59°55' E 030°14'0 0.0
2017-Oct-13 13:59N 59°55' E 030°14'0 0.0
2017-Oct-13 13:29N 59°55' E 030°14'0 0.0
2017-Oct-13 12:59N 59°55' E 030°14'0 0.0
2017-Oct-13 12:29N 59°55' E 030°14'0 0.0
2017-Oct-13 11:59N 59°55' E 030°14'0 0.0
2017-Oct-13 11:29N 59°55' E 030°14'0 0.0
2017-Oct-13 10:59N 59°55' E 030°14'0 0.0
2017-Oct-13 10:29N 59°55' E 030°14'0 0.0
2017-Oct-13 09:59N 59°55' E 030°14'0 0.0
2017-Oct-13 09:29N 59°55' E 030°14'0 0.0
2017-Oct-13 08:59N 59°55' E 030°14'0 0.0
2017-Oct-13 08:29N 59°55' E 030°14'0 0.0
2017-Oct-13 07:59N 59°55' E 030°14'0 0.0
2017-Oct-13 07:26N 59°55' E 030°14'0 0.0
2017-Oct-13 06:59N 59°55' E 030°14'0 0.0
2017-Oct-13 06:29N 59°55' E 030°14'0 0.0
2017-Oct-13 05:59N 59°55' E 030°14'0 0.0
2017-Oct-13 05:29N 59°55' E 030°14'0 0.0
2017-Oct-13 04:59N 59°55' E 030°14'0 0.0
2017-Oct-13 04:29N 59°55' E 030°14'0 0.0
2017-Oct-13 03:59N 59°55' E 030°14'0 0.0
2017-Oct-13 03:29N 59°55' E 030°14'0 0.0
2017-Oct-13 02:59N 59°55' E 030°14'0 0.0
2017-Oct-13 02:29N 59°55' E 030°14'0 0.0
2017-Oct-13 01:59N 59°55' E 030°14'0 0.0
2017-Oct-13 01:29N 59°55' E 030°14'0 0.0
2017-Oct-13 00:59N 59°55' E 030°14'0 0.0
2017-Oct-13 00:26N 59°55' E 030°14'0 0.0
2017-Oct-12 23:59N 59°55' E 030°14'0 0.0
2017-Oct-12 23:29N 59°55' E 030°14'0 0.0
2017-Oct-12 22:59N 59°55' E 030°14'0 0.0
2017-Oct-12 22:29N 59°55' E 030°14'0 0.0
2017-Oct-12 21:59N 59°55' E 030°14'0 0.0
2017-Oct-12 21:26N 59°55' E 030°14'0 0.0
2017-Oct-12 20:59N 59°55' E 030°14'0 0.0
2017-Oct-12 20:29N 59°55' E 030°14'0 0.0
2017-Oct-12 19:59N 59°55' E 030°14'0 0.0
2017-Oct-12 19:28N 59°55' E 030°14'0 0.0
2017-Oct-12 18:58N 59°55' E 030°14'0 0.0
2017-Oct-12 18:28N 59°55' E 030°14'0 0.0
2017-Oct-12 17:58N 59°55' E 030°14'0 0.0
2017-Oct-12 17:28N 59°55' E 030°14'0 0.0
2017-Oct-12 16:58N 59°55' E 030°14'0 0.0
2017-Oct-12 16:25N 59°55' E 030°14'0 0.0
2017-Oct-12 15:58N 59°55' E 030°14'0 0.0
2017-Oct-12 15:28N 59°55' E 030°14'0 0.0
2017-Oct-12 14:55N 59°55' E 030°14'0 0.0
2017-Oct-12 14:28N 59°55' E 030°14'0 0.0
2017-Oct-12 13:55N 59°55' E 030°14'0 0.0
2017-Oct-12 13:28N 59°55' E 030°14'0 0.0
2017-Oct-12 12:58N 59°55' E 030°14'0 0.0
2017-Oct-12 12:28N 59°55' E 030°14'0 0.0
2017-Oct-12 11:55N 59°55' E 030°14'0 0.0
2017-Oct-12 11:28N 59°55' E 030°14'0 0.0
2017-Oct-12 10:58N 59°55' E 030°14'0 0.0
2017-Oct-12 10:28N 59°55' E 030°14'0 0.0
2017-Oct-12 09:58N 59°55' E 030°14'0 0.0
2017-Oct-12 09:28N 59°55' E 030°14'0 0.0
2017-Oct-12 08:58N 59°55' E 030°14'0 0.0
2017-Oct-12 08:28N 59°55' E 030°14'0 0.0
2017-Oct-12 07:58N 59°55' E 030°14'0 0.0
2017-Oct-12 07:28N 59°55' E 030°14'0 0.0
2017-Oct-12 06:58N 59°55' E 030°14'0 0.0
2017-Oct-12 06:28N 59°55' E 030°14'0 0.0
2017-Oct-12 05:58N 59°55' E 030°14'0 0.0
2017-Oct-12 05:25N 59°55' E 030°14'0 0.0
2017-Oct-12 04:58N 59°55' E 030°14'0 0.0
2017-Oct-12 04:28N 59°55' E 030°14'0 0.0
2017-Oct-12 03:55N 59°55' E 030°14'0 0.0
2017-Oct-12 03:28N 59°55' E 030°14'0 0.0
2017-Oct-12 02:58N 59°55' E 030°14'0 0.0
2017-Oct-12 02:28N 59°55' E 030°14'0 0.0
2017-Oct-12 01:58N 59°55' E 030°14'0 0.0
2017-Oct-12 01:28N 59°55' E 030°14'0 0.0
2017-Oct-12 00:58N 59°55' E 030°14'0 0.0
2017-Oct-12 00:28N 59°55' E 030°14'0 0.0
2017-Oct-11 23:55N 59°55' E 030°14'0 0.0
2017-Oct-11 23:28N 59°55' E 030°14'0 0.0
2017-Oct-11 22:58N 59°55' E 030°14'0 0.0
2017-Oct-11 22:28N 59°55' E 030°14'0 0.0
2017-Oct-11 21:58N 59°55' E 030°14'0 0.0
2017-Oct-11 21:28N 59°55' E 030°14'0 0.0
2017-Oct-11 20:58N 59°55' E 030°14'0 0.0
2017-Oct-11 20:28N 59°55' E 030°14'0 0.0
2017-Oct-11 19:58N 59°55' E 030°14'0 0.0
2017-Oct-11 19:28N 59°55' E 030°14'0 0.0
2017-Oct-11 18:58N 59°55' E 030°14'0 0.0
2017-Oct-11 18:28N 59°55' E 030°14'0 0.0
2017-Oct-11 17:58N 59°55' E 030°14'0 0.0
2017-Oct-11 17:28N 59°55' E 030°14'0 0.0
2017-Oct-11 16:58N 59°55' E 030°14'0 0.0
2017-Oct-11 00:00N 59°55' E 030°14'0 0.0
2017-Oct-10 23:30N 59°55' E 030°14'0 0.0
2017-Oct-10 23:00N 59°55' E 030°14'0 0.0
2017-Oct-10 22:30N 59°55' E 030°14'0 0.0
2017-Oct-10 22:00N 59°55' E 030°14'0 0.0
2017-Oct-10 21:30N 59°55' E 030°14'0 0.0
2017-Oct-10 21:00N 59°55' E 030°14'0 0.0
2017-Oct-10 20:30N 59°55' E 030°14'0 0.0
2017-Oct-10 20:00N 59°55' E 030°14'0 0.0
2017-Oct-10 19:30N 59°55' E 030°14'0 0.0
2017-Oct-10 19:00N 59°55' E 030°14'0 0.0
2017-Oct-10 18:30N 59°55' E 030°14'0 0.0
2017-Oct-10 18:00N 59°55' E 030°14'0 0.0
2017-Oct-10 17:30N 59°55' E 030°14'0 0.0
2017-Oct-10 17:00N 59°55' E 030°14'0 0.0
2017-Oct-10 16:30N 59°55' E 030°14'0 0.0
2017-Oct-10 16:00N 59°55' E 030°14'0 0.0
2017-Oct-10 15:30N 59°55' E 030°14'0 0.0
2017-Oct-10 15:00N 59°55' E 030°14'0 0.0
2017-Oct-10 14:00N 59°55' E 030°14'0 0.0
2017-Oct-10 13:30N 59°55' E 030°14'0 0.0
2017-Oct-10 13:00N 59°55' E 030°14'0 0.0
2017-Oct-10 12:30N 59°55' E 030°14'0 0.0
2017-Oct-10 12:00N 59°55' E 030°14'0 0.0
2017-Oct-10 11:27N 59°55' E 030°14'0 0.0
2017-Oct-10 11:00N 59°55' E 030°14'0 0.0
2017-Oct-10 10:30N 59°55' E 030°14'0 0.0
2017-Oct-10 10:00N 59°55' E 030°14'0 0.0
2017-Oct-10 09:30N 59°55' E 030°14'0 0.0
2017-Oct-10 09:00N 59°55' E 030°14'0 0.0
2017-Oct-10 08:30N 59°55' E 030°14'0 0.0
2017-Oct-10 08:00N 59°55' E 030°14'0 0.0
2017-Oct-10 07:30N 59°55' E 030°14'0 0.0
2017-Oct-10 07:00N 59°55' E 030°14'0 0.0
2017-Oct-10 06:30N 59°55' E 030°14'0 0.0
2017-Oct-10 06:00N 59°55' E 030°14'0 0.0
2017-Oct-10 05:30N 59°55' E 030°14'0 0.0
2017-Oct-10 05:00N 59°55' E 030°14'0 0.0
2017-Oct-10 04:30N 59°55' E 030°14'0 0.0
2017-Oct-10 04:00N 59°55' E 030°14'0 0.0
2017-Oct-10 03:30N 59°55' E 030°14'0 0.0
2017-Oct-10 03:00N 59°55' E 030°14'0 0.0
2017-Oct-10 02:30N 59°55' E 030°14'0 0.0
2017-Oct-10 02:00N 59°55' E 030°14'0 0.0
2017-Oct-10 01:30N 59°55' E 030°14'0 0.0
2017-Oct-10 01:00N 59°55' E 030°14'0 0.0
2017-Oct-10 00:30N 59°55' E 030°14'0 0.0
2017-Oct-10 00:00N 59°55' E 030°14'0 0.0
2017-Oct-09 23:30N 59°55' E 030°14'0 0.0
2017-Oct-09 23:00N 59°55' E 030°14'0 0.0
2017-Oct-09 22:30N 59°55' E 030°14'0 0.0
2017-Oct-09 22:00N 59°55' E 030°14'0 0.0
2017-Oct-09 21:30N 59°55' E 030°14'0 0.0
2017-Oct-09 21:00N 59°55' E 030°14'0 0.0
2017-Oct-09 20:30N 59°55' E 030°14'0 0.0
2017-Oct-09 20:00N 59°55' E 030°14'0 0.0
2017-Oct-09 19:30N 59°55' E 030°14'0 0.0
2017-Oct-09 18:59N 59°55' E 030°14'0 0.0
2017-Oct-09 18:29N 59°55' E 030°14'0 0.0
2017-Oct-09 17:59N 59°55' E 030°14'0 0.0
2017-Oct-09 17:29N 59°55' E 030°14'0 0.0
2017-Oct-09 17:00N 59°55' E 030°14'0 0.0
2017-Oct-09 16:29N 59°55' E 030°14'0 0.0
2017-Oct-09 15:59N 59°55' E 030°14'0 0.5
2017-Oct-09 15:30N 59°55' E 030°14'2 3.9
2017-Oct-09 15:00N 59°53' E 030°12'3 5.2
2017-Oct-09 14:31N 59°54' E 030°07'510.0
2017-Oct-09 14:00N 59°56' E 029°58'510.9
2017-Oct-09 13:30N 59°58' E 029°48'510.3
2017-Oct-09 13:01N 60°00' E 029°38'611.5
2017-Oct-09 12:30N 60°02' E 029°27'  

Dump ship's entire track history